Time;durP1;ratioP1;P1;durP2;ratioP2;P2;SDS_P1;SDS_P2;PMS_P1;PMS_P2;Temp;Humidity;BMP_temperature;BMP_pressure;BME280_temperature;BME280_humidity;BME280_pressure;Samples;Min_cycle;Max_cycle;Signal;HPM_P1;HPM_P2
2023/06/04 00:01:23;;;;;;;6.95;1.83;;;11.90;99.90;;;;;;5021795;28;20525;-80
2023/06/04 00:03:50;;;;;;;8.38;2.03;;;11.90;99.90;;;;;;5052919;28;20337;-80
2023/06/04 00:06:17;;;;;;;8.07;1.70;;;11.90;99.90;;;;;;5053780;28;20041;-81
2023/06/04 00:08:44;;;;;;;9.25;1.75;;;11.80;99.90;;;;;;5054251;28;20033;-81
2023/06/04 00:11:11;;;;;;;9.95;2.17;;;11.80;99.90;;;;;;5035658;28;20144;-80
2023/06/04 00:13:38;;;;;;;6.72;1.90;;;11.70;99.90;;;;;;5040379;28;20049;-81
2023/06/04 00:16:04;;;;;;;10.43;1.92;;;11.70;99.90;;;;;;5056448;28;20087;-81
2023/06/04 00:18:31;;;;;;;13.27;2.13;;;11.60;99.90;;;;;;5058141;28;20048;-81
2023/06/04 00:20:58;;;;;;;6.95;2.60;;;11.60;99.90;;;;;;5040966;28;20048;-80
2023/06/04 00:23:25;;;;;;;8.07;1.95;;;11.60;99.90;;;;;;5039572;28;20052;-81
2023/06/04 00:25:51;;;;;;;5.35;1.90;;;11.50;99.90;;;;;;5040172;28;20045;-80
2023/06/04 00:28:18;;;;;;;10.85;2.05;;;11.50;99.90;;;;;;5040440;28;20345;-81
2023/06/04 00:30:45;;;;;;;11.75;2.08;;;11.50;99.90;;;;;;5022769;28;20349;-81
2023/06/04 00:33:12;;;;;;;10.15;1.88;;;11.50;99.90;;;;;;5040375;28;20052;-80
2023/06/04 00:35:38;;;;;;;10.02;2.15;;;11.40;99.90;;;;;;5023287;28;20483;-80
2023/06/04 00:38:05;;;;;;;6.32;1.60;;;11.30;99.90;;;;;;5056546;28;20098;-81
2023/06/04 00:40:32;;;;;;;8.63;1.90;;;11.30;99.90;;;;;;5057645;28;20471;-81
2023/06/04 00:42:59;;;;;;;6.05;1.85;;;11.30;99.90;;;;;;5038699;28;20033;-80
2023/06/04 00:45:26;;;;;;;7.53;1.92;;;11.30;99.90;;;;;;5066713;28;20048;-81
2023/06/04 00:47:53;;;;;;;8.38;1.83;;;11.30;99.90;;;;;;5076453;28;20032;-80
2023/06/04 00:50:21;;;;;;;5.43;2.03;;;11.20;99.90;;;;;;5075545;28;20060;-80
2023/06/04 00:52:48;;;;;;;6.18;2.53;;;11.20;99.90;;;;;;5060073;28;20432;-81
2023/06/04 00:55:18;;;;;;;9.48;2.20;;;11.20;99.90;;;;;;5076462;28;20512;-80
2023/06/04 00:57:44;;;;;;;10.68;2.20;;;11.10;99.90;;;;;;5075321;28;20114;-81
2023/06/04 01:00:12;;;;;;;8.15;1.85;;;11.10;99.90;;;;;;5076493;28;20040;-81
2023/06/04 01:02:39;;;;;;;7.60;1.98;;;11.10;99.90;;;;;;5075255;28;20375;-81
2023/06/04 01:05:08;;;;;;;13.60;2.08;;;11.00;99.90;;;;;;5059159;28;20174;-81
2023/06/04 01:07:35;;;;;;;13.57;2.30;;;11.00;99.90;;;;;;5077134;28;20036;-81
2023/06/04 01:10:02;;;;;;;13.25;2.33;;;10.90;99.90;;;;;;5075107;28;20052;-82
2023/06/04 01:12:28;;;;;;;10.65;1.88;;;11.00;99.90;;;;;;5059481;28;20041;-81
2023/06/04 01:14:55;;;;;;;6.68;1.70;;;11.00;99.90;;;;;;5075583;28;20396;-81
2023/06/04 01:17:23;;;;;;;7.63;1.75;;;11.00;99.90;;;;;;5074895;28;20048;-81
2023/06/04 01:19:54;;;;;;;9.32;2.10;;;11.00;99.90;;;;;;5077005;28;20052;-80
2023/06/04 01:27:44;;;;;;;12.13;2.58;;;10.90;99.90;;;;;;4954340;29;20047;-80
2023/06/04 01:30:11;;;;;;;11.00;2.22;;;10.90;99.90;;;;;;4937505;29;20047;-78
2023/06/04 01:32:38;;;;;;;7.30;2.10;;;10.80;99.90;;;;;;4946054;29;20047;-79
2023/06/04 01:35:05;;;;;;;7.38;1.80;;;10.80;99.90;;;;;;4938061;29;20044;-79
2023/06/04 01:37:32;;;;;;;9.82;1.90;;;10.80;99.90;;;;;;4937544;29;20050;-78
2023/06/04 01:39:59;;;;;;;8.20;2.38;;;10.70;99.90;;;;;;4938277;29;20063;-81
2023/06/04 01:42:26;;;;;;;9.43;2.13;;;10.80;99.90;;;;;;4938465;29;20344;-79
2023/06/04 01:44:52;;;;;;;7.72;1.70;;;10.70;99.90;;;;;;4948097;29;20039;-78
2023/06/04 01:47:19;;;;;;;8.23;2.38;;;10.70;99.90;;;;;;4958511;28;20377;-81
2023/06/04 01:49:46;;;;;;;7.20;2.30;;;10.70;99.90;;;;;;4956535;29;20039;-78
2023/06/04 01:52:13;;;;;;;8.85;2.58;;;10.70;99.90;;;;;;4958167;28;20054;-81
2023/06/04 01:54:40;;;;;;;11.40;2.42;;;10.70;99.90;;;;;;4956828;29;20137;-78
2023/06/04 01:57:08;;;;;;;7.65;1.90;;;10.70;99.90;;;;;;4972297;28;20118;-81
2023/06/04 01:59:34;;;;;;;8.13;2.30;;;10.60;99.90;;;;;;4957210;29;20043;-81
2023/06/04 02:02:01;;;;;;;8.45;2.20;;;10.60;99.90;;;;;;4957201;29;20058;-79
2023/06/04 02:04:28;;;;;;;10.50;2.15;;;10.60;99.90;;;;;;4955651;29;20397;-80
2023/06/04 02:06:56;;;;;;;9.35;1.83;;;10.60;99.90;;;;;;4958120;28;20050;-80
2023/06/04 02:09:23;;;;;;;10.27;2.22;;;10.60;99.90;;;;;;4956939;29;20051;-81
2023/06/04 02:11:50;;;;;;;9.40;2.10;;;10.60;99.90;;;;;;4971883;28;20488;-78
2023/06/04 02:14:16;;;;;;;7.07;1.98;;;10.60;99.90;;;;;;4956972;28;20095;-81
2023/06/04 02:16:43;;;;;;;10.75;2.25;;;10.50;99.90;;;;;;4955924;29;20302;-80
2023/06/04 02:19:12;;;;;;;12.18;2.10;;;10.50;99.90;;;;;;4956960;29;20450;-81
2023/06/04 02:21:39;;;;;;;13.15;2.05;;;10.50;99.90;;;;;;4972696;28;20036;-78
2023/06/04 02:24:06;;;;;;;9.63;2.05;;;10.50;99.90;;;;;;4956267;28;20039;-79
2023/06/04 02:26:33;;;;;;;15.07;1.98;;;10.40;99.90;;;;;;4957622;29;20086;-79
2023/06/04 02:29:00;;;;;;;5.20;1.85;;;10.40;99.90;;;;;;4956621;29;20142;-79
2023/06/04 02:31:27;;;;;;;7.07;2.25;;;10.40;99.90;;;;;;4939840;29;20484;-79
2023/06/04 02:33:54;;;;;;;7.38;2.08;;;10.40;99.90;;;;;;4956247;29;20502;-80
2023/06/04 02:36:21;;;;;;;5.82;1.95;;;10.40;99.90;;;;;;4955733;28;20366;-80
2023/06/04 02:38:48;;;;;;;9.65;2.08;;;10.30;99.90;;;;;;4956326;29;20043;-80
2023/06/04 02:41:15;;;;;;;13.48;2.03;;;10.30;99.90;;;;;;4956537;29;20389;-80
2023/06/04 02:43:42;;;;;;;6.53;1.95;;;10.30;99.90;;;;;;4939395;29;20442;-79
2023/06/04 02:46:08;;;;;;;8.05;1.75;;;10.30;99.90;;;;;;4957281;29;20054;-78
2023/06/04 02:48:35;;;;;;;5.03;1.48;;;10.20;99.90;;;;;;4957150;29;20101;-79
2023/06/04 02:51:02;;;;;;;6.95;1.70;;;10.20;99.90;;;;;;4955107;29;20415;-78
2023/06/04 02:53:29;;;;;;;12.63;2.00;;;10.10;99.90;;;;;;4955937;29;20074;-80
2023/06/04 02:55:56;;;;;;;6.57;1.85;;;10.10;99.90;;;;;;4956082;29;20047;-77
2023/06/04 02:58:24;;;;;;;9.40;1.90;;;10.00;99.90;;;;;;4956031;28;20039;-78
2023/06/04 03:00:51;;;;;;;7.32;1.67;;;10.00;99.90;;;;;;4956159;29;20086;-78
2023/06/04 03:03:18;;;;;;;6.25;1.80;;;10.00;99.90;;;;;;4954526;29;20486;-80
2023/06/04 03:05:46;;;;;;;11.73;2.28;;;10.00;99.90;;;;;;4956793;29;20073;-78
2023/06/04 03:08:12;;;;;;;4.78;1.90;;;9.90;99.90;;;;;;4940206;29;20125;-79
2023/06/04 03:10:39;;;;;;;5.22;1.80;;;9.90;99.90;;;;;;4939306;29;20061;-78
2023/06/04 03:13:06;;;;;;;6.35;2.05;;;9.90;99.90;;;;;;4940100;29;20094;-80
2023/06/04 03:15:33;;;;;;;6.20;1.63;;;9.80;99.90;;;;;;4955452;29;20047;-78
2023/06/04 03:17:59;;;;;;;6.57;1.95;;;9.80;99.90;;;;;;4939048;29;20039;-80
2023/06/04 03:20:26;;;;;;;8.85;2.17;;;9.80;99.90;;;;;;4955696;29;20047;-82
2023/06/04 03:22:53;;;;;;;6.00;1.92;;;9.70;99.90;;;;;;4956389;29;20063;-80
2023/06/04 03:25:20;;;;;;;9.57;2.28;;;9.70;99.90;;;;;;4954065;29;20051;-81
2023/06/04 03:27:47;;;;;;;9.45;2.67;;;9.70;99.90;;;;;;4939897;29;20433;-79
2023/06/04 03:30:14;;;;;;;5.80;2.05;;;9.60;99.90;;;;;;4938686;29;20126;-82
2023/06/04 03:32:48;;;;;;;10.48;2.08;;;9.60;99.90;;;;;;4940820;29;20047;-80
2023/06/04 03:35:16;;;;;;;6.78;1.75;;;9.50;99.90;;;;;;4956229;28;20046;-79
2023/06/04 03:37:43;;;;;;;9.00;2.13;;;9.50;99.90;;;;;;4954908;29;20043;-79
2023/06/04 03:40:10;;;;;;;19.05;3.10;;;9.50;99.90;;;;;;4955593;29;20043;-80
2023/06/04 03:42:41;;;;;;;9.40;1.90;;;9.50;99.90;;;;;;4940201;29;20039;-81
2023/06/04 03:45:08;;;;;;;8.07;2.40;;;9.50;99.90;;;;;;4938262;29;20058;-79
2023/06/04 03:47:36;;;;;;;5.10;1.70;;;9.50;99.90;;;;;;4939624;29;20047;-82
2023/06/04 03:50:03;;;;;;;5.13;1.67;;;9.40;99.90;;;;;;4954506;29;20347;-79
2023/06/04 03:52:30;;;;;;;12.45;2.72;;;9.40;99.90;;;;;;4939625;29;20062;-80
2023/06/04 03:54:58;;;;;;;8.50;1.98;;;9.40;99.90;;;;;;4954460;29;20442;-81
2023/06/04 03:57:26;;;;;;;14.38;2.35;;;9.40;99.90;;;;;;4954664;29;20054;-79
2023/06/04 03:59:53;;;;;;;10.70;2.45;;;9.40;99.90;;;;;;4956778;29;20159;-80
2023/06/04 04:02:20;;;;;;;10.38;2.55;;;9.40;99.90;;;;;;4940087;29;20458;-79
2023/06/04 04:04:48;;;;;;;10.07;1.90;;;9.40;99.90;;;;;;4953971;29;20138;-79
2023/06/04 04:07:15;;;;;;;3.45;1.58;;;9.40;99.90;;;;;;4956362;28;20047;-80
2023/06/04 04:09:45;;;;;;;7.60;2.22;;;9.40;99.90;;;;;;4939283;29;20078;-80
2023/06/04 04:12:11;;;;;;;6.78;2.20;;;9.30;99.90;;;;;;4955361;29;20047;-79
2023/06/04 04:14:39;;;;;;;9.30;2.58;;;9.30;99.90;;;;;;4938947;29;20050;-81
2023/06/04 04:17:07;;;;;;;6.03;1.95;;;9.30;99.90;;;;;;4938401;29;20429;-80
2023/06/04 04:19:34;;;;;;;8.07;2.33;;;9.40;99.90;;;;;;4939585;29;20043;-81
2023/06/04 04:22:01;;;;;;;9.40;2.30;;;9.30;99.90;;;;;;4955208;29;20102;-81
2023/06/04 04:24:30;;;;;;;7.30;2.35;;;9.40;99.90;;;;;;4953863;29;20382;-81
2023/06/04 04:27:03;;;;;;;8.73;2.20;;;9.40;99.90;;;;;;4939804;29;20142;-80
2023/06/04 04:29:34;;;;;;;6.82;1.88;;;9.40;99.90;;;;;;4939524;29;20082;-80
2023/06/04 04:32:11;;;;;;;8.98;2.03;;;9.50;99.90;;;;;;4938288;29;20051;-80
2023/06/04 04:34:43;;;;;;;6.65;2.25;;;9.50;99.90;;;;;;4935552;29;20048;-81
2023/06/04 04:37:10;;;;;;;10.07;2.33;;;9.60;99.90;;;;;;4951115;29;20036;-80
2023/06/04 04:39:37;;;;;;;6.18;2.28;;;9.60;99.90;;;;;;4936813;29;20047;-80
2023/06/04 04:42:04;;;;;;;8.73;2.30;;;9.60;99.90;;;;;;4935843;29;20072;-79
2023/06/04 04:44:31;;;;;;;8.60;1.75;;;9.70;99.90;;;;;;4934111;29;20103;-81
2023/06/04 04:46:58;;;;;;;12.10;2.47;;;9.80;99.90;;;;;;4935872;29;20055;-80
2023/06/04 04:49:25;;;;;;;8.13;2.10;;;9.80;99.90;;;;;;4935848;29;20047;-80
2023/06/04 04:51:52;;;;;;;13.27;2.50;;;9.90;99.90;;;;;;4934827;29;20070;-80
2023/06/04 04:54:19;;;;;;;8.02;2.63;;;10.00;99.90;;;;;;4935187;29;20446;-78
2023/06/04 04:56:45;;;;;;;10.65;2.80;;;10.00;99.90;;;;;;4934896;29;20054;-80
2023/06/04 04:59:14;;;;;;;11.85;2.58;;;10.10;99.90;;;;;;4937372;29;20058;-79
2023/06/04 05:01:41;;;;;;;6.63;2.40;;;10.20;99.90;;;;;;4955138;29;20071;-80
2023/06/04 05:04:08;;;;;;;10.35;2.80;;;10.30;99.90;;;;;;4937585;29;20486;-80
2023/06/04 05:06:37;;;;;;;11.57;2.75;;;10.40;99.90;;;;;;4939082;29;20048;-79
2023/06/04 05:09:07;;;;;;;12.25;2.53;;;10.40;99.90;;;;;;4938969;29;20074;-80
2023/06/04 05:11:34;;;;;;;8.80;2.47;;;10.50;99.90;;;;;;4953764;29;20047;-79
2023/06/04 05:14:01;;;;;;;8.63;2.65;;;10.60;99.90;;;;;;4939448;29;20533;-79
2023/06/04 05:16:29;;;;;;;12.52;3.13;;;10.80;99.90;;;;;;4953624;29;20106;-80
2023/06/04 05:18:56;;;;;;;16.45;2.83;;;10.80;99.90;;;;;;4938859;29;20048;-81
2023/06/04 05:21:28;;;;;;;13.27;2.63;;;10.90;99.90;;;;;;4966589;28;20051;-80
2023/06/04 05:24:00;;;;;;;12.07;2.63;;;11.00;99.90;;;;;;4956643;29;20079;-86
2023/06/04 05:26:32;;;;;;;20.53;4.30;;;11.10;99.90;;;;;;4942581;29;20047;-82
2023/06/04 05:29:04;;;;;;;10.30;2.63;;;11.20;99.90;;;;;;4957953;29;20477;-81
2023/06/04 05:31:36;;;;;;;10.80;2.60;;;11.30;99.90;;;;;;4956891;29;20048;-83
2023/06/04 05:34:05;;;;;;;11.65;3.25;;;11.40;99.90;;;;;;4941632;29;20052;-83
2023/06/04 05:36:35;;;;;;;12.10;3.53;;;11.50;99.90;;;;;;4941287;29;20050;-84
2023/06/04 05:39:04;;;;;;;9.30;2.90;;;11.60;99.90;;;;;;4957961;29;20142;-81
2023/06/04 05:41:43;;;;;;;11.48;3.08;;;11.70;99.90;;;;;;4943588;29;20376;-82
2023/06/04 05:44:10;;;;;;;11.63;3.65;;;11.80;99.90;;;;;;4956482;29;20106;-83
2023/06/04 05:46:37;;;;;;;12.43;2.65;;;11.90;99.90;;;;;;4957518;29;20098;-81
2023/06/04 05:49:04;;;;;;;9.98;3.03;;;12.00;99.90;;;;;;4957560;29;20114;-82
2023/06/04 05:51:31;;;;;;;14.00;2.75;;;12.00;99.90;;;;;;4956663;29;20043;-81
2023/06/04 05:53:58;;;;;;;12.02;3.30;;;12.00;99.90;;;;;;4940974;29;20134;-82
2023/06/04 05:56:26;;;;;;;11.20;2.75;;;12.10;99.90;;;;;;4956278;29;20067;-81
2023/06/04 05:58:54;;;;;;;9.48;3.20;;;12.20;99.90;;;;;;4957323;29;20458;-82
2023/06/04 06:01:23;;;;;;;8.02;2.90;;;12.30;99.90;;;;;;4941964;29;20043;-82
2023/06/04 06:03:51;;;;;;;9.93;3.00;;;12.30;99.90;;;;;;4955895;29;20047;-80
2023/06/04 06:06:20;;;;;;;11.30;3.30;;;12.40;99.90;;;;;;4941732;29;20477;-81
2023/06/04 06:08:48;;;;;;;11.77;2.80;;;12.60;99.90;;;;;;4957292;29;20058;-79
2023/06/04 06:11:15;;;;;;;9.85;3.05;;;12.70;99.90;;;;;;4955935;28;20085;-83
2023/06/04 06:13:42;;;;;;;9.48;2.65;;;12.90;99.90;;;;;;4941005;29;20051;-80
2023/06/04 06:16:10;;;;;;;12.75;3.00;;;13.00;99.90;;;;;;4957176;29;20540;-83
2023/06/04 06:18:37;;;;;;;11.88;3.30;;;13.00;99.90;;;;;;4956222;29;20069;-81
2023/06/04 06:21:04;;;;;;;8.95;2.88;;;13.00;99.90;;;;;;4957789;29;20098;-83
2023/06/04 06:23:31;;;;;;;13.75;3.22;;;13.10;99.90;;;;;;4971026;28;20047;-81
2023/06/04 06:26:01;;;;;;;10.68;2.78;;;13.30;99.90;;;;;;4956653;29;20149;-81
2023/06/04 06:28:31;;;;;;;10.43;3.20;;;13.30;99.90;;;;;;4956715;29;20047;-83
2023/06/04 06:31:02;;;;;;;7.60;2.60;;;13.40;99.90;;;;;;4955635;29;20058;-83
2023/06/04 06:33:29;;;;;;;6.85;2.88;;;13.50;99.90;;;;;;4972325;28;20062;-80
2023/06/04 06:35:56;;;;;;;11.57;2.75;;;13.60;99.90;;;;;;4957472;28;20063;-80
2023/06/04 06:38:23;;;;;;;8.85;2.83;;;13.70;99.90;;;;;;4956435;29;20039;-82
2023/06/04 06:40:49;;;;;;;8.57;2.67;;;13.70;99.90;;;;;;4957644;29;20126;-82
2023/06/04 06:43:16;;;;;;;15.75;2.90;;;13.70;99.90;;;;;;4956261;29;20612;-82
2023/06/04 06:45:43;;;;;;;9.63;2.63;;;13.90;99.90;;;;;;4972672;28;20043;-80
2023/06/04 06:48:10;;;;;;;11.48;2.80;;;14.00;99.90;;;;;;4956524;29;20501;-80
2023/06/04 06:50:36;;;;;;;14.35;3.20;;;14.20;99.90;;;;;;4956334;29;20055;-81
2023/06/04 06:53:03;;;;;;;11.00;3.22;;;14.50;99.90;;;;;;4956961;29;20138;-82
2023/06/04 06:55:30;;;;;;;15.32;2.85;;;14.60;99.90;;;;;;4972316;28;20040;-80
2023/06/04 06:57:57;;;;;;;10.35;2.50;;;14.70;99.90;;;;;;4956286;28;20510;-82
2023/06/04 07:00:24;;;;;;;9.82;2.97;;;14.70;99.90;;;;;;4956188;29;20035;-82
2023/06/04 07:02:51;;;;;;;8.32;2.70;;;14.80;99.90;;;;;;4972434;28;20477;-81
2023/06/04 07:05:18;;;;;;;7.95;2.50;;;14.90;99.90;;;;;;4955496;29;20039;-81
2023/06/04 07:07:46;;;;;;;10.68;2.40;;;14.90;99.90;;;;;;4972129;28;20047;-83
2023/06/04 07:10:13;;;;;;;9.00;2.42;;;14.90;99.90;;;;;;4954935;29;20051;-81
2023/06/04 07:12:40;;;;;;;8.38;2.40;;;14.90;99.90;;;;;;4957145;28;20307;-82
2023/06/04 07:15:09;;;;;;;6.80;2.38;;;15.00;99.90;;;;;;4954046;29;20043;-83
2023/06/04 07:17:36;;;;;;;10.52;2.67;;;15.10;99.90;;;;;;4970936;28;20055;-82
2023/06/04 07:20:06;;;;;;;11.60;2.60;;;15.30;99.90;;;;;;4971746;28;20434;-83
2023/06/04 07:22:33;;;;;;;9.85;3.15;;;15.50;99.90;;;;;;4939502;29;20047;-83
2023/06/04 07:25:00;;;;;;;12.80;2.45;;;15.70;99.90;;;;;;4954335;29;20061;-83
2023/06/04 07:27:27;;;;;;;9.80;2.65;;;15.70;99.90;;;;;;4955881;29;20074;-82
2023/06/04 07:29:54;;;;;;;16.95;2.55;;;15.80;99.90;;;;;;4955654;28;20047;-83
2023/06/04 07:32:20;;;;;;;8.48;2.55;;;15.80;99.90;;;;;;4955918;29;20039;-80
2023/06/04 07:34:47;;;;;;;8.13;2.45;;;15.90;99.90;;;;;;4955244;29;20087;-82
2023/06/04 07:37:15;;;;;;;9.60;2.40;;;16.00;99.90;;;;;;4955709;29;20039;-80
2023/06/04 07:39:42;;;;;;;8.73;2.13;;;16.10;99.90;;;;;;4955974;29;20047;-81
2023/06/04 07:42:08;;;;;;;6.55;2.13;;;16.30;99.90;;;;;;4955775;29;20105;-81
2023/06/04 07:44:35;;;;;;;10.68;2.50;;;16.50;99.90;;;;;;4954234;29;20098;-81
2023/06/04 07:47:02;;;;;;;10.73;2.83;;;16.60;99.90;;;;;;4955484;29;20051;-82
2023/06/04 07:49:28;;;;;;;10.27;2.72;;;16.60;99.90;;;;;;4955605;29;20067;-81
2023/06/04 07:51:55;;;;;;;6.25;2.13;;;16.70;99.90;;;;;;4954402;29;20105;-81
2023/06/04 07:54:22;;;;;;;10.68;3.13;;;16.80;99.90;;;;;;4939085;29;20071;-85
2023/06/04 07:56:49;;;;;;;8.38;2.58;;;16.80;99.90;;;;;;4939021;29;20098;-82
2023/06/04 07:59:15;;;;;;;10.27;2.72;;;16.80;99.90;;;;;;4955723;29;20067;-83
2023/06/04 08:01:42;;;;;;;11.52;3.20;;;17.00;99.90;;;;;;4955589;29;20081;-83
2023/06/04 08:04:09;;;;;;;8.13;2.10;;;17.30;99.90;;;;;;4953710;29;20434;-84
2023/06/04 08:06:36;;;;;;;6.90;2.30;;;17.40;99.90;;;;;;4952616;29;20140;-84
2023/06/04 08:09:03;;;;;;;10.75;2.42;;;17.60;99.90;;;;;;4970651;28;20043;-84
2023/06/04 08:11:37;;;;;;;9.02;2.38;;;17.80;99.90;;;;;;4964081;28;20067;-82
2023/06/04 08:14:04;;;;;;;8.55;2.35;;;17.90;99.90;;;;;;4934565;29;20043;-81
2023/06/04 08:16:30;;;;;;;9.52;2.58;;;17.70;99.90;;;;;;4934708;29;20048;-82
2023/06/04 08:18:57;;;;;;;8.20;2.53;;;17.70;99.90;;;;;;4935257;29;20079;-83
2023/06/04 08:21:24;;;;;;;10.75;2.53;;;17.80;99.90;;;;;;4946260;29;20108;-82
2023/06/04 08:23:51;;;;;;;10.07;2.90;;;17.90;99.90;;;;;;4952767;29;20474;-83
2023/06/04 08:26:19;;;;;;;7.57;2.20;;;18.00;99.90;;;;;;4938341;29;20102;-82
2023/06/04 08:28:45;;;;;;;8.82;2.20;;;18.00;99.90;;;;;;4969780;28;20043;-79
2023/06/04 08:31:12;;;;;;;12.38;2.90;;;18.00;99.90;;;;;;4954371;29;20102;-82
2023/06/04 08:33:39;;;;;;;7.82;2.30;;;18.10;99.90;;;;;;4972695;28;20043;-81
2023/06/04 08:36:06;;;;;;;9.90;2.50;;;18.30;99.90;;;;;;4958530;28;20039;-81
2023/06/04 08:38:33;;;;;;;10.93;2.88;;;18.40;99.90;;;;;;4958604;28;20039;-81
2023/06/04 08:41:00;;;;;;;8.80;2.60;;;18.50;99.90;;;;;;4959342;29;20039;-82
2023/06/04 08:43:26;;;;;;;15.35;2.40;;;18.50;99.90;;;;;;4957996;29;20054;-81
2023/06/04 08:45:55;;;;;;;11.60;2.45;;;18.80;99.90;;;;;;4959465;29;20078;-82
2023/06/04 08:48:22;;;;;;;10.10;2.38;;;18.90;99.90;;;;;;4974653;28;20054;-82
2023/06/04 08:50:49;;;;;;;10.10;2.53;;;18.80;99.90;;;;;;4958022;29;20046;-84
2023/06/04 08:53:15;;;;;;;10.55;2.30;;;18.90;99.90;;;;;;4957432;29;20130;-82
2023/06/04 08:55:42;;;;;;;10.75;2.58;;;18.90;99.90;;;;;;4957888;29;20130;-83
2023/06/04 08:58:10;;;;;;;7.45;2.10;;;19.00;99.90;;;;;;4972879;28;20039;-82
2023/06/04 09:00:36;;;;;;;9.00;2.22;;;19.20;99.90;;;;;;4974441;28;20074;-81
2023/06/04 09:03:03;;;;;;;8.95;2.60;;;19.40;99.90;;;;;;4973397;28;20569;-82
2023/06/04 09:05:30;;;;;;;8.07;2.90;;;19.40;99.90;;;;;;4973541;28;20110;-83
2023/06/04 09:07:57;;;;;;;8.02;2.03;;;19.50;99.90;;;;;;4958969;29;20051;-82
2023/06/04 09:10:23;;;;;;;6.95;2.00;;;19.50;99.90;;;;;;4956742;29;20146;-81
2023/06/04 09:12:50;;;;;;;11.65;2.25;;;19.60;99.90;;;;;;4973156;28;20118;-81
2023/06/04 09:15:17;;;;;;;8.82;2.67;;;19.60;99.90;;;;;;4958823;29;20114;-82
2023/06/04 09:17:43;;;;;;;11.25;3.08;;;19.70;99.90;;;;;;4972876;28;20055;-82
2023/06/04 09:20:10;;;;;;;12.63;2.67;;;19.80;99.90;;;;;;4958412;29;20043;-82
2023/06/04 09:22:37;;;;;;;9.52;2.55;;;19.90;99.90;;;;;;4957857;29;20430;-82
2023/06/04 09:25:04;;;;;;;6.82;2.33;;;19.80;99.90;;;;;;4956418;29;20051;-82
2023/06/04 09:27:31;;;;;;;12.45;5.32;;;19.90;99.90;;;;;;4941409;29;20121;-81
2023/06/04 09:29:57;;;;;;;8.68;2.10;;;20.10;99.90;;;;;;4956500;29;20438;-83
2023/06/04 09:32:24;;;;;;;10.65;3.78;;;20.00;99.90;;;;;;4941467;29;20047;-80
2023/06/04 09:34:52;;;;;;;7.50;2.30;;;20.10;99.90;;;;;;4957383;29;20047;-82
2023/06/04 09:37:19;;;;;;;7.20;2.10;;;20.30;99.90;;;;;;4940849;29;20047;-80
2023/06/04 09:39:46;;;;;;;7.85;2.63;;;20.60;99.90;;;;;;4958658;28;20454;-81
2023/06/04 09:42:13;;;;;;;8.70;2.15;;;20.70;99.90;;;;;;4958036;29;20047;-81
2023/06/04 09:44:39;;;;;;;6.80;2.20;;;20.70;99.90;;;;;;4955153;28;20437;-84
2023/06/04 09:47:06;;;;;;;11.48;2.33;;;20.80;99.90;;;;;;4957714;29;20051;-81
2023/06/04 09:49:33;;;;;;;8.82;1.90;;;20.90;99.90;;;;;;4941787;29;20047;-81
2023/06/04 09:52:02;;;;;;;9.38;2.72;;;21.10;99.90;;;;;;4940146;29;20102;-87
2023/06/04 09:54:29;;;;;;;6.22;1.95;;;21.00;99.90;;;;;;4941652;29;20043;-79
2023/06/04 09:56:56;;;;;;;7.93;2.15;;;21.30;99.90;;;;;;4940540;29;20039;-81
2023/06/04 09:59:23;;;;;;;10.43;2.20;;;21.40;99.90;;;;;;4957408;29;20085;-79
2023/06/04 10:01:49;;;;;;;8.90;2.15;;;21.50;99.90;;;;;;4958438;29;20066;-82
2023/06/04 10:04:16;;;;;;;6.28;1.80;;;21.50;99.90;;;;;;4940195;29;20512;-82
2023/06/04 10:06:43;;;;;;;9.20;2.00;;;21.70;99.90;;;;;;4941253;29;20054;-84
2023/06/04 10:09:10;;;;;;;5.50;1.67;;;21.80;99.90;;;;;;4957316;29;20410;-79
2023/06/04 10:11:36;;;;;;;8.15;2.10;;;22.00;99.90;;;;;;4956581;29;20466;-82
2023/06/04 10:14:06;;;;;;;11.18;2.38;;;22.30;99.90;;;;;;4957649;28;20051;-80
2023/06/04 10:16:32;;;;;;;6.93;2.05;;;22.30;99.90;;;;;;4972406;28;20066;-82
2023/06/04 10:19:01;;;;;;;8.85;2.47;;;22.20;99.90;;;;;;4972777;28;20044;-80
2023/06/04 10:21:27;;;;;;;8.07;2.20;;;22.40;99.90;;;;;;4946014;28;20328;-81
2023/06/04 10:23:54;;;;;;;9.20;2.08;;;22.60;99.90;;;;;;4952134;29;20070;-82
2023/06/04 10:26:21;;;;;;;7.45;2.17;;;22.70;99.90;;;;;;4937556;29;20391;-79
2023/06/04 10:28:48;;;;;;;9.25;2.80;;;22.70;99.90;;;;;;4953608;29;20107;-84
2023/06/04 10:31:15;;;;;;;8.82;2.22;;;22.80;99.90;;;;;;4937576;29;20047;-80
2023/06/04 10:33:43;;;;;;;11.48;2.30;;;23.00;99.90;;;;;;4936866;29;20066;-79
2023/06/04 10:36:09;;;;;;;8.30;2.53;;;23.00;99.90;;;;;;4938007;29;20048;-80
2023/06/04 10:38:36;;;;;;;9.65;2.22;;;23.20;99.90;;;;;;4937596;29;20043;-80
2023/06/04 10:41:03;;;;;;;6.15;2.13;;;23.30;99.90;;;;;;4937365;29;20058;-82
2023/06/04 10:43:30;;;;;;;11.45;2.58;;;23.70;99.90;;;;;;4936694;29;20460;-83
2023/06/04 10:45:57;;;;;;;8.20;2.33;;;23.70;99.20;;;;;;4953283;29;20426;-80
2023/06/04 10:48:24;;;;;;;12.52;2.60;;;23.80;98.10;;;;;;4937338;29;20458;-80
2023/06/04 10:50:50;;;;;;;7.25;2.10;;;24.10;97.70;;;;;;4952455;29;20067;-82
2023/06/04 10:53:17;;;;;;;9.38;2.30;;;24.20;96.90;;;;;;4937867;29;20063;-82
2023/06/04 10:55:44;;;;;;;6.63;2.53;;;24.20;96.00;;;;;;4942505;28;20129;-83
2023/06/04 10:58:11;;;;;;;8.45;2.42;;;24.40;95.00;;;;;;4954338;29;20043;-80
2023/06/04 11:00:38;;;;;;;8.40;2.40;;;24.60;94.70;;;;;;4945723;29;20063;-82
2023/06/04 11:03:05;;;;;;;6.82;2.42;;;24.70;93.00;;;;;;4955802;28;20086;-82
2023/06/04 11:05:35;;;;;;;5.67;1.80;;;24.80;92.60;;;;;;4955712;29;20478;-80
2023/06/04 11:08:02;;;;;;;9.65;2.55;;;25.10;91.40;;;;;;4957062;28;20059;-80
2023/06/04 11:10:29;;;;;;;7.50;2.50;;;25.30;92.00;;;;;;4955752;29;20047;-81
2023/06/04 11:12:55;;;;;;;9.75;2.05;;;25.30;90.60;;;;;;4955803;29;20051;-81
2023/06/04 11:15:23;;;;;;;10.18;2.85;;;25.40;90.50;;;;;;4971975;28;20086;-80
2023/06/04 11:17:50;;;;;;;9.55;2.60;;;25.60;90.20;;;;;;4956010;29;20381;-81
2023/06/04 11:20:18;;;;;;;7.57;2.53;;;25.80;90.40;;;;;;4955877;29;20046;-85
2023/06/04 11:22:44;;;;;;;7.85;2.35;;;26.10;90.10;;;;;;4956123;29;20039;-81
2023/06/04 11:25:12;;;;;;;15.45;2.60;;;26.00;85.80;;;;;;4956078;28;20121;-79
2023/06/04 11:27:39;;;;;;;6.90;2.28;;;26.00;87.90;;;;;;4955806;29;20386;-81
2023/06/04 11:30:06;;;;;;;8.50;2.50;;;26.20;85.10;;;;;;4955973;28;20347;-81
2023/06/04 11:32:32;;;;;;;7.28;2.70;;;26.60;86.80;;;;;;4956352;28;20043;-83
2023/06/04 11:34:59;;;;;;;9.02;2.70;;;26.60;85.10;;;;;;4971586;28;20586;-80
2023/06/04 11:37:30;;;;;;;15.25;3.03;;;27.10;86.90;;;;;;4970502;28;20039;-80
2023/06/04 11:39:57;;;;;;;9.30;2.83;;;27.30;82.70;;;;;;4971032;28;20039;-79
2023/06/04 11:42:24;;;;;;;7.00;2.10;;;27.30;81.80;;;;;;4954915;29;20134;-84
2023/06/04 11:44:50;;;;;;;7.70;2.20;;;27.50;82.30;;;;;;4970609;28;20071;-83
2023/06/04 11:47:17;;;;;;;11.75;2.40;;;27.30;81.60;;;;;;4971463;28;20051;-81
2023/06/04 11:49:44;;;;;;;8.25;2.42;;;27.40;80.30;;;;;;4956079;28;20074;-83
2023/06/04 11:52:11;;;;;;;9.57;2.20;;;27.70;80.00;;;;;;4956127;29;20039;-83
2023/06/04 11:54:39;;;;;;;10.18;2.45;;;27.70;78.00;;;;;;4956670;28;20105;-84
2023/06/04 11:57:06;;;;;;;6.82;2.15;;;28.00;78.40;;;;;;4955699;28;20094;-85
2023/06/04 11:59:33;;;;;;;8.63;2.20;;;27.90;74.90;;;;;;4956639;28;20055;-82
2023/06/04 12:02:00;;;;;;;7.97;2.22;;;28.10;77.10;;;;;;4971632;28;20039;-85
2023/06/04 12:04:26;;;;;;;14.35;2.70;;;28.10;77.10;;;;;;4970796;28;20062;-86
2023/06/04 12:06:53;;;;;;;8.45;2.42;;;27.90;73.00;;;;;;4956436;28;20463;-84
2023/06/04 12:09:20;;;;;;;7.78;2.13;;;27.90;74.20;;;;;;4959061;29;20463;-82
2023/06/04 12:11:47;;;;;;;6.95;2.10;;;28.00;72.50;;;;;;4958207;29;20062;-88
2023/06/04 12:14:13;;;;;;;8.75;2.03;;;28.00;72.00;;;;;;4959151;29;20043;-82
2023/06/04 12:16:40;;;;;;;7.63;2.35;;;28.10;71.80;;;;;;4974843;28;20046;-82
2023/06/04 12:19:07;;;;;;;10.02;2.33;;;28.30;71.20;;;;;;4975197;28;20047;-85
2023/06/04 12:21:34;;;;;;;7.60;2.20;;;28.60;73.80;;;;;;4962345;28;20358;-84
2023/06/04 12:24:00;;;;;;;7.78;2.25;;;28.60;71.10;;;;;;4954448;29;20063;-84
2023/06/04 12:26:32;;;;;;;7.93;2.15;;;28.40;70.00;;;;;;4940697;29;20123;-85
2023/06/04 12:28:59;;;;;;;6.60;2.17;;;28.50;70.80;;;;;;4956100;29;20110;-83
2023/06/04 12:31:31;;;;;;;7.57;2.30;;;28.90;70.40;;;;;;4938716;29;20040;-83
2023/06/04 12:33:58;;;;;;;12.82;2.20;;;28.90;68.70;;;;;;4955385;29;20066;-84
2023/06/04 12:36:26;;;;;;;9.80;2.30;;;28.70;69.40;;;;;;4938676;29;20079;-83
2023/06/04 12:38:52;;;;;;;7.25;2.03;;;28.90;68.70;;;;;;4940690;29;20114;-84
2023/06/04 12:41:19;;;;;;;6.57;2.03;;;28.80;68.00;;;;;;4939662;29;20047;-86
2023/06/04 12:43:46;;;;;;;8.68;2.20;;;28.90;68.40;;;;;;4954198;29;20048;-83
2023/06/04 12:46:12;;;;;;;8.48;2.10;;;29.10;68.40;;;;;;4955566;29;20047;-84
2023/06/04 12:48:40;;;;;;;8.05;2.30;;;29.30;66.60;;;;;;4939588;29;20055;-85
2023/06/04 12:51:06;;;;;;;9.40;2.50;;;29.30;67.20;;;;;;4940569;29;20107;-84